Time;durP1;ratioP1;P1;durP2;ratioP2;P2;SDS_P1;SDS_P2;PMS_P1;PMS_P2;Temp;Humidity;BMP_temperature;BMP_pressure;BME280_temperature;BME280_humidity;BME280_pressure;Samples;Min_cycle;Max_cycle;Signal;HPM_P1;HPM_P2
2022/03/22 00:01:21;;;;;;;6.70;1.40;;;;;;;;;;4984908;28;20034;-83
2022/03/22 00:03:47;;;;;;;1.13;1.00;;;;;;;;;;4983855;28;20801;-84
2022/03/22 00:06:14;;;;;;;0.10;0.10;;;;;;;;;;4982302;28;20030;-82
2022/03/22 00:08:41;;;;;;;2.08;0.95;;;;;;;;;;4983289;28;20161;-83
2022/03/22 00:11:07;;;;;;;0.80;0.80;;;;;;;;;;4982996;28;20030;-83
2022/03/22 00:13:34;;;;;;;15.95;1.90;;;;;;;;;;4999049;28;20038;-83
2022/03/22 00:16:01;;;;;;;0.20;0.20;;;;;;;;;;4983415;28;20034;-83
2022/03/22 00:18:27;;;;;;;0.20;0.20;;;;;;;;;;4983952;28;20030;-83
2022/03/22 00:20:54;;;;;;;0.10;0.10;;;;;;;;;;4983109;28;20113;-83
2022/03/22 00:23:21;;;;;;;0.70;0.70;;;;;;;;;;4985441;28;20030;-83
2022/03/22 00:25:47;;;;;;;0.47;0.47;;;;;;;;;;4985826;28;20034;-83
2022/03/22 00:28:14;;;;;;;0.73;0.73;;;;;;;;;;4982399;28;20044;-82
2022/03/22 00:30:40;;;;;;;0.10;0.10;;;;;;;;;;4982183;28;20066;-82
2022/03/22 00:33:07;;;;;;;0.68;0.68;;;;;;;;;;4984160;28;20030;-83
2022/03/22 00:35:38;;;;;;;3.72;2.17;;;;;;;;;;4983046;28;20120;-83
2022/03/22 00:38:06;;;;;;;0.20;0.20;;;;;;;;;;4982174;28;20557;-82
2022/03/22 00:40:32;;;;;;;0.30;0.30;;;;;;;;;;4998763;28;20057;-83
2022/03/22 00:42:58;;;;;;;3.25;1.00;;;;;;;;;;4984072;28;20033;-83
2022/03/22 00:45:28;;;;;;;0.10;0.10;;;;;;;;;;4984302;28;20038;-82
2022/03/22 00:47:54;;;;;;;0.32;0.32;;;;;;;;;;4983697;28;20054;-82
2022/03/22 00:50:22;;;;;;;1.75;0.80;;;;;;;;;;4984578;28;20030;-82
2022/03/22 00:52:48;;;;;;;0.25;0.25;;;;;;;;;;4984030;28;20046;-82
2022/03/22 00:55:14;;;;;;;0.07;0.07;;;;;;;;;;4996725;28;20046;-82
2022/03/22 00:57:41;;;;;;;0.25;0.25;;;;;;;;;;4979586;28;20497;-84
2022/03/22 01:00:09;;;;;;;2.13;1.05;;;;;;;;;;4983436;28;20034;-84
2022/03/22 01:02:36;;;;;;;0.50;0.50;;;;;;;;;;4982624;28;20037;-84
2022/03/22 01:05:07;;;;;;;0.10;0.10;;;;;;;;;;4983581;28;20034;-85
2022/03/22 01:07:33;;;;;;;0.45;0.45;;;;;;;;;;4984299;28;20081;-83
2022/03/22 01:10:00;;;;;;;0.55;0.55;;;;;;;;;;4981461;28;20113;-83
2022/03/22 01:12:26;;;;;;;0.47;0.47;;;;;;;;;;4981748;28;20034;-82
2022/03/22 01:14:52;;;;;;;0.77;0.47;;;;;;;;;;4982181;28;20048;-82
2022/03/22 01:17:19;;;;;;;0.90;0.63;;;;;;;;;;4982689;28;20413;-82
2022/03/22 01:19:46;;;;;;;0.20;0.20;;;;;;;;;;4980891;28;20045;-82
2022/03/22 01:22:11;;;;;;;;;;;;;;;;;;4982651;28;20034;-82
2022/03/22 01:24:38;;;;;;;0.00;0.00;;;;;;;;;;4982211;28;19914;-84
2022/03/22 01:27:04;;;;;;;0.10;0.10;;;;;;;;;;4981333;28;20081;-84
2022/03/22 01:29:30;;;;;;;1.95;1.13;;;;;;;;;;4982212;28;20503;-83
2022/03/22 01:31:56;;;;;;;1.13;1.07;;;;;;;;;;4983998;28;20038;-83
2022/03/22 01:34:23;;;;;;;0.55;0.55;;;;;;;;;;4982821;28;20304;-84
2022/03/22 01:36:49;;;;;;;0.50;0.50;;;;;;;;;;4981349;28;20117;-84
2022/03/22 01:39:15;;;;;;;0.40;0.32;;;;;;;;;;4982157;28;20568;-83
2022/03/22 01:41:41;;;;;;;0.20;0.20;;;;;;;;;;4981698;28;20216;-83
2022/03/22 01:44:07;;;;;;;0.47;0.47;;;;;;;;;;4981101;28;20034;-83
2022/03/22 01:46:36;;;;;;;0.47;0.47;;;;;;;;;;4982927;28;22209;-82
2022/03/22 01:49:02;;;;;;;0.90;0.90;;;;;;;;;;4981740;28;20126;-82
2022/03/22 01:51:31;;;;;;;0.40;0.40;;;;;;;;;;4981726;28;20793;-82
2022/03/22 01:53:58;;;;;;;0.52;0.52;;;;;;;;;;4982091;28;20058;-83
2022/03/22 01:56:24;;;;;;;0.20;0.20;;;;;;;;;;4981804;28;20040;-80
2022/03/22 01:58:50;;;;;;;0.10;0.10;;;;;;;;;;4982542;28;20032;-80
2022/03/22 02:06:46;;;;;;;0.10;0.10;;;;;;;;;;4983198;28;20154;-80
2022/03/22 02:09:13;;;;;;;5.93;3.47;;;;;;;;;;4981935;28;20030;-80
2022/03/22 02:11:39;;;;;;;0.70;0.70;;;;;;;;;;4981081;28;20037;-82
2022/03/22 02:14:05;;;;;;;0.00;0.00;;;;;;;;;;4981749;28;20030;-80
2022/03/22 02:16:32;;;;;;;0.43;0.43;;;;;;;;;;4982821;28;20030;-80
2022/03/22 02:18:58;;;;;;;0.22;0.22;;;;;;;;;;4980509;28;20130;-82
2022/03/22 02:21:25;;;;;;;0.35;0.35;;;;;;;;;;4982214;28;20780;-81
2022/03/22 02:23:52;;;;;;;0.80;0.80;;;;;;;;;;4982601;28;20057;-81
2022/03/22 02:26:18;;;;;;;;;;;;;;;;;;4979837;28;20034;-81
2022/03/22 02:28:44;;;;;;;7.07;1.77;;;;;;;;;;4983232;28;19914;-80
2022/03/22 02:31:11;;;;;;;0.45;0.45;;;;;;;;;;4982516;28;20032;-81
2022/03/22 02:33:40;;;;;;;0.32;0.32;;;;;;;;;;4981354;28;20445;-81
2022/03/22 02:36:06;;;;;;;0.57;0.57;;;;;;;;;;4981510;28;20042;-80
2022/03/22 02:38:32;;;;;;;1.10;0.77;;;;;;;;;;4975179;28;20031;-80
2022/03/22 02:40:59;;;;;;;0.65;0.60;;;;;;;;;;4981925;28;20489;-80
2022/03/22 02:43:25;;;;;;;0.38;0.38;;;;;;;;;;4996502;28;20097;-82
2022/03/22 02:45:51;;;;;;;0.75;0.73;;;;;;;;;;4981527;28;20038;-81
2022/03/22 02:48:18;;;;;;;0.10;0.10;;;;;;;;;;4981625;28;20034;-80
2022/03/22 02:50:44;;;;;;;0.10;0.10;;;;;;;;;;4981071;28;20030;-80
2022/03/22 02:53:10;;;;;;;2.20;1.13;;;;;;;;;;4982298;28;20054;-82
2022/03/22 02:55:36;;;;;;;0.50;0.50;;;;;;;;;;4980978;28;20129;-83
2022/03/22 02:58:03;;;;;;;1.38;1.17;;;;;;;;;;4981155;28;20093;-82
2022/03/22 03:00:29;;;;;;;1.75;1.13;;;;;;;;;;4978836;28;20026;-83
2022/03/22 03:02:55;;;;;;;1.07;0.97;;;;;;;;;;4980183;28;20041;-82
2022/03/22 03:05:22;;;;;;;0.90;0.47;;;;;;;;;;4978846;28;20039;-83
2022/03/22 03:07:49;;;;;;;2.08;0.95;;;;;;;;;;4979890;28;20465;-83
2022/03/22 03:10:15;;;;;;;0.20;0.20;;;;;;;;;;4981779;28;20026;-80
2022/03/22 03:12:42;;;;;;;0.43;0.43;;;;;;;;;;4979889;28;20045;-81
2022/03/22 03:15:11;;;;;;;0.15;0.15;;;;;;;;;;4981128;28;20434;-81
2022/03/22 03:17:38;;;;;;;1.17;0.80;;;;;;;;;;4980966;28;20081;-80
2022/03/22 03:20:05;;;;;;;0.70;0.70;;;;;;;;;;4981889;28;20481;-81
2022/03/22 03:22:31;;;;;;;0.00;0.00;;;;;;;;;;4981674;28;20026;-81
2022/03/22 03:24:57;;;;;;;8.80;1.27;;;;;;;;;;4981871;28;20037;-81
2022/03/22 03:27:23;;;;;;;1.55;1.08;;;;;;;;;;4984625;28;20108;-82
2022/03/22 03:29:50;;;;;;;0.47;0.47;;;;;;;;;;4984774;28;20105;-81
2022/03/22 03:32:16;;;;;;;0.40;0.40;;;;;;;;;;4982500;28;20127;-81
2022/03/22 03:34:42;;;;;;;2.17;0.75;;;;;;;;;;4986553;28;20042;-81
2022/03/22 03:37:08;;;;;;;0.43;0.43;;;;;;;;;;4984171;28;20038;-81
2022/03/22 03:39:37;;;;;;;0.82;0.82;;;;;;;;;;4984472;28;20038;-81
2022/03/22 03:42:04;;;;;;;1.55;0.85;;;;;;;;;;4982539;28;20632;-81
2022/03/22 03:47:16;;;;;;;0.50;0.50;;;;;;;;;;4985759;28;20692;-82
2022/03/22 03:49:52;;;;;;;0.20;0.20;;;;;;;;;;4986326;28;20356;-81
2022/03/22 03:52:22;;;;;;;0.08;0.08;;;;;;;;;;4998487;28;20494;-81
2022/03/22 03:54:49;;;;;;;0.38;0.10;;;;;;;;;;4982038;28;20042;-81
2022/03/22 03:57:15;;;;;;;1.20;1.13;;;;;;;;;;4975134;28;20480;-85
2022/03/22 03:59:41;;;;;;;0.65;0.63;;;;;;;;;;4982011;28;20038;-85
2022/03/22 04:02:08;;;;;;;0.20;0.20;;;;;;;;;;4983761;28;20030;-85
2022/03/22 04:04:35;;;;;;;0.10;0.10;;;;;;;;;;4997788;28;20118;-83
2022/03/22 04:07:01;;;;;;;0.93;0.93;;;;;;;;;;4984271;28;20030;-88
2022/03/22 04:09:27;;;;;;;2.72;1.58;;;;;;;;;;4985378;28;20080;-87
2022/03/22 04:11:54;;;;;;;1.03;0.90;;;;;;;;;;4984545;28;20035;-89
2022/03/22 04:14:20;;;;;;;0.10;0.10;;;;;;;;;;4980093;28;20045;-84
2022/03/22 04:16:46;;;;;;;0.33;0.30;;;;;;;;;;4983821;28;20284;-84
2022/03/22 04:19:12;;;;;;;0.65;0.65;;;;;;;;;;4983372;28;20034;-85
2022/03/22 04:21:39;;;;;;;0.40;0.40;;;;;;;;;;4983967;28;20041;-85
2022/03/22 04:24:06;;;;;;;0.98;0.40;;;;;;;;;;4982408;28;20278;-83
2022/03/22 04:26:33;;;;;;;1.85;1.20;;;;;;;;;;4983692;28;20045;-83
2022/03/22 04:34:29;;;;;;;0.20;0.17;;;;;;;;;;4986412;28;20049;-87
2022/03/22 04:36:55;;;;;;;0.55;0.55;;;;;;;;;;4983059;28;20030;-87
2022/03/22 04:39:23;;;;;;;0.98;0.65;;;;;;;;;;4982760;28;20030;-87
2022/03/22 04:41:49;;;;;;;0.05;0.05;;;;;;;;;;4983765;28;20798;-85
2022/03/22 04:44:17;;;;;;;0.20;0.20;;;;;;;;;;4983976;28;20414;-85
2022/03/22 04:46:43;;;;;;;0.77;0.43;;;;;;;;;;4983594;28;20054;-84
2022/03/22 04:49:09;;;;;;;0.23;0.23;;;;;;;;;;4982076;28;20713;-85
2022/03/22 04:57:04;;;;;;;0.63;0.50;;;;;;;;;;4983886;28;20096;-84
2022/03/22 04:59:30;;;;;;;0.13;0.13;;;;;;;;;;4984014;28;20068;-85
2022/03/22 05:01:57;;;;;;;5.90;1.50;;;;;;;;;;4983167;28;20034;-85
2022/03/22 05:04:23;;;;;;;0.20;0.20;;;;;;;;;;4999000;28;20042;-85
2022/03/22 05:06:49;;;;;;;4.15;1.50;;;;;;;;;;4982420;28;20038;-86
2022/03/22 05:09:15;;;;;;;0.17;0.17;;;;;;;;;;4982585;28;20030;-85
2022/03/22 05:11:41;;;;;;;0.00;0.00;;;;;;;;;;4980678;28;20341;-86
2022/03/22 05:14:08;;;;;;;0.90;0.50;;;;;;;;;;4979851;28;20607;-85
2022/03/22 05:16:35;;;;;;;;;;;;;;;;;;4983103;28;20057;-85
2022/03/22 05:19:03;;;;;;;0.73;0.43;;;;;;;;;;4983046;28;19928;-86
2022/03/22 05:21:29;;;;;;;0.13;0.13;;;;;;;;;;4981187;28;20061;-85
2022/03/22 05:23:55;;;;;;;4.47;1.80;;;;;;;;;;4983167;28;20330;-87
2022/03/22 05:26:21;;;;;;;0.40;0.40;;;;;;;;;;4982696;28;20023;-87
2022/03/22 05:28:47;;;;;;;0.30;0.30;;;;;;;;;;4983041;28;20093;-86
2022/03/22 05:31:17;;;;;;;0.10;0.10;;;;;;;;;;4982063;28;20030;-87
2022/03/22 05:33:43;;;;;;;0.13;0.13;;;;;;;;;;4982351;28;20042;-86
2022/03/22 05:36:09;;;;;;;0.30;0.30;;;;;;;;;;4982388;28;20069;-83
2022/03/22 05:38:36;;;;;;;0.05;0.05;;;;;;;;;;4981465;28;20037;-83
2022/03/22 05:41:03;;;;;;;0.45;0.45;;;;;;;;;;4982488;28;20070;-82
2022/03/22 05:43:29;;;;;;;0.28;0.28;;;;;;;;;;4984069;28;20054;-85
2022/03/22 05:45:55;;;;;;;1.20;0.75;;;;;;;;;;4983202;28;20105;-86
2022/03/22 05:48:21;;;;;;;0.13;0.13;;;;;;;;;;4981193;28;20035;-84
2022/03/22 05:50:48;;;;;;;0.00;0.00;;;;;;;;;;4995225;28;20285;-83
2022/03/22 05:53:14;;;;;;;0.13;0.13;;;;;;;;;;4983102;28;20082;-89
2022/03/22 05:55:41;;;;;;;0.43;0.43;;;;;;;;;;4983699;28;20046;-84
2022/03/22 05:58:08;;;;;;;1.20;1.10;;;;;;;;;;4985594;28;20504;-86
2022/03/22 06:00:34;;;;;;;0.13;0.13;;;;;;;;;;4981516;28;20300;-85
2022/03/22 06:03:00;;;;;;;0.10;0.10;;;;;;;;;;4981544;28;20036;-86
2022/03/22 06:05:28;;;;;;;0.35;0.35;;;;;;;;;;4981218;28;20062;-83
2022/03/22 06:07:55;;;;;;;0.10;0.10;;;;;;;;;;4982456;28;20034;-84
2022/03/22 06:10:21;;;;;;;0.30;0.30;;;;;;;;;;4981507;28;20551;-80
2022/03/22 06:12:49;;;;;;;1.45;0.40;;;;;;;;;;4981000;28;20126;-89
2022/03/22 06:15:19;;;;;;;0.10;0.10;;;;;;;;;;4985760;28;20030;-89
2022/03/22 06:17:49;;;;;;;0.10;0.10;;;;;;;;;;4981872;28;20026;-83
2022/03/22 06:20:16;;;;;;;0.40;0.40;;;;;;;;;;4980223;28;20030;-85
2022/03/22 06:22:42;;;;;;;;;;;;;;;;;;4984225;28;20045;-84
2022/03/22 06:25:09;;;;;;;0.73;0.73;;;;;;;;;;4980822;28;19913;-88
2022/03/22 06:27:35;;;;;;;0.43;0.43;;;;;;;;;;4979172;28;20034;-85
2022/03/22 06:30:03;;;;;;;0.10;0.10;;;;;;;;;;4973173;28;20497;-84
2022/03/22 06:32:29;;;;;;;0.10;0.10;;;;;;;;;;4982220;28;20530;-86
2022/03/22 06:34:55;;;;;;;1.13;0.93;;;;;;;;;;4981816;28;20104;-81
2022/03/22 06:37:21;;;;;;;2.33;0.83;;;;;;;;;;4980887;28;20027;-81
2022/03/22 06:39:47;;;;;;;0.90;0.90;;;;;;;;;;4980016;28;20096;-81
2022/03/22 06:42:14;;;;;;;2.20;1.23;;;;;;;;;;4982237;28;20054;-85
2022/03/22 06:44:40;;;;;;;0.95;0.73;;;;;;;;;;4981071;28;20825;-82
2022/03/22 06:47:07;;;;;;;0.25;0.25;;;;;;;;;;4982469;28;20018;-85
2022/03/22 06:49:33;;;;;;;0.57;0.57;;;;;;;;;;4997060;28;20509;-80
2022/03/22 06:51:59;;;;;;;6.57;0.57;;;;;;;;;;4981287;28;20097;-81
2022/03/22 06:54:26;;;;;;;0.63;0.63;;;;;;;;;;4981726;28;20383;-81
2022/03/22 06:56:52;;;;;;;0.50;0.50;;;;;;;;;;4981445;28;20042;-81
2022/03/22 06:59:18;;;;;;;0.10;0.10;;;;;;;;;;4980944;28;20045;-81
2022/03/22 07:01:44;;;;;;;0.28;0.28;;;;;;;;;;5006225;28;20289;-80
2022/03/22 07:04:10;;;;;;;0.20;0.20;;;;;;;;;;4985407;28;20026;-80
2022/03/22 07:06:37;;;;;;;0.60;0.33;;;;;;;;;;4984650;28;20049;-86
2022/03/22 07:09:03;;;;;;;1.53;0.30;;;;;;;;;;4985203;28;20398;-83
2022/03/22 07:11:49;;;;;;;0.10;0.10;;;;;;;;;;4983948;28;20282;-84
2022/03/22 07:14:15;;;;;;;;;;;;;;;;;;4984895;28;20030;-84
2022/03/22 07:16:41;;;;;;;0.20;0.20;;;;;;;;;;4986418;28;19913;-85
2022/03/22 07:19:07;;;;;;;0.37;0.37;;;;;;;;;;4983593;28;20565;-84
2022/03/22 07:21:33;;;;;;;1.27;1.13;;;;;;;;;;4983745;28;20038;-85
2022/03/22 07:24:00;;;;;;;0.10;0.10;;;;;;;;;;4984355;28;20101;-85
2022/03/22 07:26:26;;;;;;;2.35;1.00;;;;;;;;;;4986480;28;20036;-85
2022/03/22 07:28:52;;;;;;;0.40;0.40;;;;;;;;;;4987092;28;20069;-85
2022/03/22 07:31:19;;;;;;;0.30;0.30;;;;;;;;;;4984257;28;20088;-85
2022/03/22 07:33:45;;;;;;;1.80;0.93;;;;;;;;;;4984349;28;20035;-85
2022/03/22 07:36:11;;;;;;;0.10;0.10;;;;;;;;;;4985449;28;20035;-85
2022/03/22 07:38:37;;;;;;;0.60;0.60;;;;;;;;;;4985824;28;20289;-86
2022/03/22 07:41:03;;;;;;;0.60;0.60;;;;;;;;;;4986848;28;20030;-87
2022/03/22 07:43:30;;;;;;;0.93;0.93;;;;;;;;;;4984792;28;20026;-83
2022/03/22 07:45:56;;;;;;;0.40;0.32;;;;;;;;;;4984267;28;20042;-83
2022/03/22 07:48:22;;;;;;;0.57;0.57;;;;;;;;;;4984412;28;20034;-86
2022/03/22 07:53:33;;;;;;;0.45;0.45;;;;;;;;;;4985228;28;20313;-86
2022/03/22 07:55:59;;;;;;;0.10;0.10;;;;;;;;;;4984986;28;20109;-86
2022/03/22 07:58:25;;;;;;;1.53;1.17;;;;;;;;;;4984645;28;20220;-86
2022/03/22 08:00:52;;;;;;;0.40;0.40;;;;;;;;;;5001184;28;20297;-86
2022/03/22 08:03:18;;;;;;;0.43;0.38;;;;;;;;;;4984811;28;20433;-86
2022/03/22 08:05:47;;;;;;;0.50;0.50;;;;;;;;;;4985762;28;20112;-85
2022/03/22 08:08:14;;;;;;;0.85;0.55;;;;;;;;;;4983988;28;20501;-85
2022/03/22 08:10:42;;;;;;;0.40;0.40;;;;;;;;;;5000792;28;20497;-86
2022/03/22 08:13:09;;;;;;;0.17;0.17;;;;;;;;;;4983879;28;20129;-86
2022/03/22 08:15:36;;;;;;;0.63;0.20;;;;;;;;;;4984031;28;20065;-86
2022/03/22 08:18:02;;;;;;;;;;;;;;;;;;4985648;28;20158;-85
2022/03/22 08:20:30;;;;;;;0.50;0.50;;;;;;;;;;4985160;28;19941;-85
2022/03/22 08:22:59;;;;;;;0.20;0.20;;;;;;;;;;4986245;28;20113;-85
2022/03/22 08:25:29;;;;;;;0.20;0.20;;;;;;;;;;4985343;28;20093;-86
2022/03/22 08:27:56;;;;;;;0.52;0.40;;;;;;;;;;4985230;28;20669;-85
2022/03/22 08:30:23;;;;;;;0.40;0.40;;;;;;;;;;4984373;28;20057;-85
2022/03/22 08:32:50;;;;;;;1.35;0.35;;;;;;;;;;4984879;28;20042;-85
2022/03/22 08:35:16;;;;;;;0.10;0.10;;;;;;;;;;4984436;28;20034;-85
2022/03/22 08:37:42;;;;;;;0.15;0.15;;;;;;;;;;4986218;28;20038;-85
2022/03/22 08:40:09;;;;;;;0.32;0.20;;;;;;;;;;4984345;28;20058;-86
2022/03/22 08:42:37;;;;;;;0.25;0.25;;;;;;;;;;4978920;28;20556;-86
2022/03/22 08:45:06;;;;;;;0.32;0.32;;;;;;;;;;4984366;28;20041;-85
2022/03/22 08:47:34;;;;;;;0.80;0.55;;;;;;;;;;4983258;28;20030;-86
2022/03/22 08:50:00;;;;;;;0.22;0.22;;;;;;;;;;4983229;28;20467;-85
2022/03/22 08:52:26;;;;;;;1.55;0.93;;;;;;;;;;5000545;28;20029;-86
2022/03/22 08:54:52;;;;;;;0.40;0.40;;;;;;;;;;4984603;28;20464;-86
2022/03/22 08:57:18;;;;;;;0.20;0.20;;;;;;;;;;4983723;28;20029;-86
2022/03/22 08:59:44;;;;;;;1.55;1.40;;;;;;;;;;4983587;28;20045;-86
2022/03/22 09:02:11;;;;;;;0.22;0.22;;;;;;;;;;4984085;28;20026;-85
2022/03/22 09:07:22;;;;;;;0.28;0.28;;;;;;;;;;4984203;28;20425;-86
2022/03/22 09:09:48;;;;;;;1.15;0.75;;;;;;;;;;4983373;28;20113;-86
2022/03/22 09:12:14;;;;;;;1.58;0.77;;;;;;;;;;4982559;28;20027;-85
2022/03/22 09:14:40;;;;;;;0.98;0.85;;;;;;;;;;4982254;28;20571;-85
2022/03/22 09:17:07;;;;;;;0.13;0.13;;;;;;;;;;4984730;28;20061;-85
2022/03/22 09:19:36;;;;;;;2.53;0.32;;;;;;;;;;4999691;28;20034;-85
2022/03/22 09:22:03;;;;;;;0.40;0.40;;;;;;;;;;4982376;28;20038;-85
2022/03/22 09:24:29;;;;;;;0.15;0.15;;;;;;;;;;4983258;28;20117;-86
2022/03/22 09:26:55;;;;;;;0.00;0.00;;;;;;;;;;4982172;28;20642;-86
2022/03/22 09:29:21;;;;;;;0.52;0.50;;;;;;;;;;4981579;28;20053;-85
2022/03/22 09:31:47;;;;;;;1.27;0.93;;;;;;;;;;5000094;28;20037;-85
2022/03/22 09:34:13;;;;;;;0.83;0.47;;;;;;;;;;4983305;28;20347;-86
2022/03/22 09:36:39;;;;;;;0.57;0.57;;;;;;;;;;4981912;28;20274;-84
2022/03/22 09:39:05;;;;;;;0.77;0.77;;;;;;;;;;4983205;28;20096;-86
2022/03/22 09:41:32;;;;;;;0.55;0.55;;;;;;;;;;4983250;28;20073;-85
2022/03/22 09:43:59;;;;;;;0.88;0.28;;;;;;;;;;4984556;28;20486;-86
2022/03/22 09:46:26;;;;;;;6.50;0.75;;;;;;;;;;4984284;28;20040;-85
2022/03/22 09:48:52;;;;;;;0.15;0.15;;;;;;;;;;4981375;28;20360;-85
2022/03/22 09:54:03;;;;;;;0.10;0.10;;;;;;;;;;4973990;28;20401;-85
2022/03/22 09:56:30;;;;;;;0.47;0.47;;;;;;;;;;4979724;28;20027;-86
2022/03/22 09:59:00;;;;;;;0.60;0.60;;;;;;;;;;4983983;28;20085;-86
2022/03/22 10:01:27;;;;;;;0.70;0.70;;;;;;;;;;4998589;28;20182;-85
2022/03/22 10:04:00;;;;;;;0.85;0.73;;;;;;;;;;4981175;28;20529;-86
2022/03/22 10:06:27;;;;;;;0.60;0.50;;;;;;;;;;4996008;28;20501;-86
2022/03/22 10:08:53;;;;;;;0.35;0.35;;;;;;;;;;4982258;28;20037;-79
2022/03/22 10:11:20;;;;;;;1.08;0.90;;;;;;;;;;4981471;28;20034;-79
2022/03/22 10:13:57;;;;;;;5.53;1.00;;;;;;;;;;4983710;28;20038;-79
2022/03/22 10:16:23;;;;;;;0.70;0.50;;;;;;;;;;4994252;28;20173;-80
2022/03/22 10:18:50;;;;;;;0.65;0.65;;;;;;;;;;4982736;28;20312;-79
2022/03/22 10:21:16;;;;;;;1.70;0.95;;;;;;;;;;4981664;28;20038;-79
2022/03/22 10:23:55;;;;;;;0.43;0.43;;;;;;;;;;4981356;28;20047;-79
2022/03/22 10:26:21;;;;;;;0.30;0.20;;;;;;;;;;4974966;28;20038;-79
2022/03/22 10:28:52;;;;;;;0.32;0.32;;;;;;;;;;4983617;28;20030;-79
2022/03/22 10:31:19;;;;;;;0.40;0.38;;;;;;;;;;4982187;28;20065;-79
2022/03/22 10:33:48;;;;;;;0.63;0.52;;;;;;;;;;4982422;28;20042;-80
2022/03/22 10:36:15;;;;;;;0.20;0.20;;;;;;;;;;4982302;28;20054;-79
2022/03/22 10:38:41;;;;;;;;;;;;;;;;;;4969502;28;20122;-79
2022/03/22 10:41:09;;;;;;;0.60;0.52;;;;;;;;;;4986413;28;19914;-79
2022/03/22 10:43:36;;;;;;;0.20;0.20;;;;;;;;;;4997884;28;20038;-79
2022/03/22 10:46:04;;;;;;;0.05;0.05;;;;;;;;;;4984085;28;20045;-79
2022/03/22 10:48:33;;;;;;;0.10;0.10;;;;;;;;;;4984276;28;20026;-79
2022/03/22 10:51:00;;;;;;;0.90;0.88;;;;;;;;;;4986181;28;20034;-79
2022/03/22 10:53:28;;;;;;;0.70;0.55;;;;;;;;;;4986031;28;20042;-80
2022/03/22 10:55:55;;;;;;;0.93;0.40;;;;;;;;;;4985671;28;20080;-80
2022/03/22 10:58:25;;;;;;;0.52;0.52;;;;;;;;;;4999944;28;20062;-80
2022/03/22 11:00:52;;;;;;;0.30;0.30;;;;;;;;;;4985801;28;20038;-79
2022/03/22 11:03:18;;;;;;;0.25;0.25;;;;;;;;;;4985390;28;20121;-79
2022/03/22 11:05:50;;;;;;;0.32;0.22;;;;;;;;;;4986663;28;20030;-79
2022/03/22 11:08:19;;;;;;;0.40;0.40;;;;;;;;;;4986468;28;20045;-86
2022/03/22 11:10:46;;;;;;;0.93;0.93;;;;;;;;;;5002575;28;20038;-86
2022/03/22 11:13:12;;;;;;;0.15;0.15;;;;;;;;;;4985543;28;20125;-86
2022/03/22 11:15:43;;;;;;;3.00;0.65;;;;;;;;;;4985641;28;21024;-86
2022/03/22 11:18:09;;;;;;;0.45;0.40;;;;;;;;;;4985452;28;20031;-85
2022/03/22 11:20:35;;;;;;;;;;;;;;;;;;4985983;28;20031;-86
2022/03/22 11:23:02;;;;;;;1.00;0.57;;;;;;;;;;5001732;28;19920;-86
2022/03/22 11:25:35;;;;;;;0.57;0.57;;;;;;;;;;4986882;28;20026;-86
2022/03/22 11:28:11;;;;;;;0.50;0.28;;;;;;;;;;4985289;28;20177;-85
2022/03/22 11:30:38;;;;;;;;;;;;;;;;;;4984559;28;20038;-86
2022/03/22 11:35:50;;;;;;;0.55;0.55;;;;;;;;;;4977013;28;20100;-86
2022/03/22 11:38:54;;;;;;;0.52;0.52;;;;;;;;;;4983519;28;20493;-86
2022/03/22 11:44:10;;;;;;;0.15;0.15;;;;;;;;;;4963521;28;20441;-85
2022/03/22 11:46:36;;;;;;;1.55;0.55;;;;;;;;;;4965557;28;20429;-85
2022/03/22 11:49:13;;;;;;;0.20;0.20;;;;;;;;;;4947947;28;20038;-85
2022/03/22 11:51:38;;;;;;;;;;;;;;;;;;4947754;28;20046;-85
2022/03/22 11:54:08;;;;;;;0.70;0.60;;;;;;;;;;4958822;28;19922;-84
2022/03/22 11:56:45;;;;;;;4.47;0.38;;;;;;;;;;4945796;28;20081;-85
2022/03/22 11:59:15;;;;;;;0.10;0.10;;;;;;;;;;4958817;28;20035;-85
2022/03/22 12:01:41;;;;;;;0.43;0.43;;;;;;;;;;4963730;28;20045;-85
2022/03/22 12:04:16;;;;;;;0.10;0.10;;;;;;;;;;4960962;28;20117;-84
2022/03/22 12:06:43;;;;;;;23.20;1.20;;;;;;;;;;4960335;28;20845;-86
2022/03/22 12:09:09;;;;;;;1.20;0.68;;;;;;;;;;4946921;28;20058;-85
2022/03/22 12:11:36;;;;;;;0.30;0.30;;;;;;;;;;4969307;28;20046;-85
2022/03/22 12:14:03;;;;;;;1.08;0.93;;;;;;;;;;4982913;28;20034;-86
2022/03/22 12:16:29;;;;;;;0.47;0.47;;;;;;;;;;4998702;28;20999;-85
2022/03/22 12:18:59;;;;;;;0.20;0.20;;;;;;;;;;4983292;28;20660;-85
2022/03/22 12:21:26;;;;;;;0.03;0.03;;;;;;;;;;4984341;28;20602;-86
2022/03/22 12:23:52;;;;;;;3.20;0.55;;;;;;;;;;4985444;28;20050;-85
2022/03/22 12:26:18;;;;;;;8.10;0.53;;;;;;;;;;4984431;28;20030;-86
2022/03/22 12:28:48;;;;;;;0.50;0.50;;;;;;;;;;5000803;28;20281;-86
2022/03/22 12:31:15;;;;;;;0.20;0.20;;;;;;;;;;4984262;28;20049;-86
2022/03/22 12:33:42;;;;;;;1.27;0.65;;;;;;;;;;4983943;28;20030;-85
2022/03/22 12:36:08;;;;;;;0.50;0.50;;;;;;;;;;4984898;28;20084;-86
2022/03/22 12:38:35;;;;;;;0.30;0.30;;;;;;;;;;4984517;28;20030;-86
2022/03/22 12:41:01;;;;;;;0.93;0.65;;;;;;;;;;4966881;28;20530;-86
2022/03/22 12:43:27;;;;;;;0.28;0.28;;;;;;;;;;4983941;28;20077;-86
2022/03/22 12:45:54;;;;;;;2.78;0.93;;;;;;;;;;4983285;28;20033;-88
2022/03/22 12:48:20;;;;;;;0.38;0.38;;;;;;;;;;4983807;28;20579;-87
2022/03/22 12:50:47;;;;;;;0.22;0.22;;;;;;;;;;4980998;28;20445;-86
2022/03/22 12:53:13;;;;;;;1.33;0.60;;;;;;;;;;4982144;28;20849;-86
2022/03/22 12:55:42;;;;;;;0.80;0.80;;;;;;;;;;4999411;28;20047;-87
2022/03/22 12:58:08;;;;;;;0.55;0.47;;;;;;;;;;4982752;28;20121;-86
2022/03/22 13:00:38;;;;;;;0.90;0.57;;;;;;;;;;4983218;28;20619;-86
2022/03/22 13:03:07;;;;;;;0.32;0.32;;;;;;;;;;4983411;28;20300;-86
2022/03/22 13:05:33;;;;;;;1.10;0.65;;;;;;;;;;4980900;28;20833;-86
2022/03/22 13:07:59;;;;;;;0.63;0.63;;;;;;;;;;4984927;28;20042;-81
2022/03/22 13:15:01;;;;;;;0.10;0.10;;;;;;;;;;4926366;29;20427;-80
2022/03/22 13:16:23;;;;;;;0.73;0.73;;;;;;;;;;4927171;29;20657;-80
2022/03/22 13:18:50;;;;;;;8.10;0.80;;;;;;;;;;4924566;29;20099;-80
2022/03/22 13:21:21;;;;;;;0.20;0.20;;;;;;;;;;4919197;29;20047;-80
2022/03/22 13:23:47;;;;;;;0.47;0.47;;;;;;;;;;4930598;29;20043;-80
2022/03/22 13:26:16;;;;;;;0.40;0.20;;;;;;;;;;4902480;29;20465;-81
2022/03/22 13:28:42;;;;;;;1.27;1.17;;;;;;;;;;4925532;29;20358;-80
2022/03/22 13:31:09;;;;;;;0.27;0.27;;;;;;;;;;4926396;29;20083;-81
2022/03/22 13:33:35;;;;;;;0.13;0.13;;;;;;;;;;4926539;29;20043;-80
2022/03/22 13:36:04;;;;;;;0.80;0.80;;;;;;;;;;4927154;29;20031;-81
2022/03/22 13:38:31;;;;;;;0.50;0.50;;;;;;;;;;4925490;29;20046;-81
2022/03/22 13:41:00;;;;;;;0.95;0.75;;;;;;;;;;4924281;29;20044;-80
2022/03/22 13:43:26;;;;;;;0.88;0.75;;;;;;;;;;4903547;28;20034;-80
2022/03/22 13:45:53;;;;;;;0.40;0.40;;;;;;;;;;4982309;28;20034;-80
2022/03/22 13:48:19;;;;;;;;;;;;;;;;;;4982462;28;20054;-80
2022/03/22 13:50:47;;;;;;;0.40;0.40;;;;;;;;;;4996498;28;21295;-80
2022/03/22 13:53:15;;;;;;;0.10;0.10;;;;;;;;;;4980986;28;20703;-80
2022/03/22 13:55:42;;;;;;;1.17;0.60;;;;;;;;;;4997872;28;20129;-80
2022/03/22 13:58:11;;;;;;;1.20;0.50;;;;;;;;;;4981038;28;20033;-80
2022/03/22 14:00:38;;;;;;;0.20;0.20;;;;;;;;;;4980222;28;20034;-81
2022/03/22 14:03:05;;;;;;;0.55;0.52;;;;;;;;;;4982099;28;20337;-80
2022/03/22 14:05:32;;;;;;;0.33;0.30;;;;;;;;;;4980491;28;20167;-80
2022/03/22 14:07:59;;;;;;;2.10;1.42;;;;;;;;;;4983604;28;20785;-81
2022/03/22 14:10:26;;;;;;;0.55;0.32;;;;;;;;;;4981768;28;20033;-80
2022/03/22 14:12:52;;;;;;;0.65;0.57;;;;;;;;;;4980410;28;20510;-80
2022/03/22 14:15:18;;;;;;;0.10;0.10;;;;;;;;;;4980967;28;20089;-80
2022/03/22 14:17:45;;;;;;;4.28;0.43;;;;;;;;;;4979541;28;20117;-80
2022/03/22 14:20:12;;;;;;;3.15;1.13;;;;;;;;;;4982503;28;20430;-81
2022/03/22 14:22:41;;;;;;;0.10;0.10;;;;;;;;;;4982399;28;20519;-80
2022/03/22 14:25:07;;;;;;;0.63;0.63;;;;;;;;;;4981678;28;20030;-80
2022/03/22 14:27:34;;;;;;;0.25;0.25;;;;;;;;;;4982701;28;20031;-80
2022/03/22 14:30:04;;;;;;;0.10;0.10;;;;;;;;;;4979763;28;20030;-80
2022/03/22 14:32:30;;;;;;;0.52;0.50;;;;;;;;;;4982768;28;20084;-80
2022/03/22 14:37:47;;;;;;;27.70;0.70;;;;;;;;;;4961644;28;20101;-81
2022/03/22 14:40:13;;;;;;;0.75;0.35;;;;;;;;;;4960250;28;20129;-79
2022/03/22 14:42:39;;;;;;;0.43;0.43;;;;;;;;;;4944808;28;20460;-80
2022/03/22 14:45:08;;;;;;;0.30;0.30;;;;;;;;;;4943613;28;20047;-81
2022/03/22 14:47:35;;;;;;;0.35;0.35;;;;;;;;;;4958795;28;20111;-80
2022/03/22 14:50:01;;;;;;;;;;;;;;;;;;4944652;28;20042;-80
2022/03/22 14:55:11;;;;;;;0.10;0.10;;;;;;;;;;4957941;28;20061;-80
2022/03/22 15:00:22;;;;;;;0.30;0.30;;;;;;;;;;4957877;28;20592;-80
2022/03/22 15:02:49;;;;;;;0.27;0.27;;;;;;;;;;4943771;28;20640;-81
2022/03/22 15:08:21;;;;;;;0.38;0.38;;;;;;;;;;4941194;29;20550;-80
2022/03/22 15:10:47;;;;;;;;;;;;;;;;;;4942280;29;20033;-80
2022/03/22 15:13:13;;;;;;;0.10;0.10;;;;;;;;;;4925419;29;19918;-80
2022/03/22 15:15:40;;;;;;;0.63;0.63;;;;;;;;;;4970089;28;20050;-80
2022/03/22 15:18:07;;;;;;;0.50;0.50;;;;;;;;;;4963138;28;20114;-80
2022/03/22 15:20:36;;;;;;;0.30;0.30;;;;;;;;;;4977971;28;20050;-80
2022/03/22 15:23:06;;;;;;;0.40;0.40;;;;;;;;;;4983335;28;20842;-81
2022/03/22 15:25:36;;;;;;;0.22;0.22;;;;;;;;;;4981290;28;20635;-81
2022/03/22 15:28:03;;;;;;;0.20;0.20;;;;;;;;;;4981190;28;20038;-80
2022/03/22 15:30:30;;;;;;;0.65;0.65;;;;;;;;;;4966823;28;20500;-80
2022/03/22 15:32:56;;;;;;;1.85;1.35;;;;;;;;;;4966531;28;20038;-80